sensor_id;sensor_type;location;lat;lon;timestamp;temperature;humidity
66088;DHT22;52872;52.994;6.940;2022-12-07T00:01:51;5.00;99.90
66088;DHT22;52872;52.994;6.940;2022-12-07T00:04:18;5.00;99.90
66088;DHT22;52872;52.994;6.940;2022-12-07T00:06:47;4.90;99.90
66088;DHT22;52872;52.994;6.940;2022-12-07T00:09:17;4.90;99.90
66088;DHT22;52872;52.994;6.940;2022-12-07T00:11:45;4.80;99.90
66088;DHT22;52872;52.994;6.940;2022-12-07T00:14:15;4.80;99.90
66088;DHT22;52872;52.994;6.940;2022-12-07T00:16:43;4.70;99.90
66088;DHT22;52872;52.994;6.940;2022-12-07T00:19:12;4.70;99.90
66088;DHT22;52872;52.994;6.940;2022-12-07T00:21:39;4.70;99.90
66088;DHT22;52872;52.994;6.940;2022-12-07T00:24:06;4.60;99.90
66088;DHT22;52872;52.994;6.940;2022-12-07T00:26:38;4.70;99.90
66088;DHT22;52872;52.994;6.940;2022-12-07T00:29:11;4.70;99.90
66088;DHT22;52872;52.994;6.940;2022-12-07T00:31:39;4.70;99.90
66088;DHT22;52872;52.994;6.940;2022-12-07T00:34:15;4.70;99.90
66088;DHT22;52872;52.994;6.940;2022-12-07T00:36:42;4.80;99.90
66088;DHT22;52872;52.994;6.940;2022-12-07T00:39:09;4.80;99.90
66088;DHT22;52872;52.994;6.940;2022-12-07T00:41:36;4.90;99.90
66088;DHT22;52872;52.994;6.940;2022-12-07T00:44:03;4.90;99.90
66088;DHT22;52872;52.994;6.940;2022-12-07T00:46:30;4.90;99.90
66088;DHT22;52872;52.994;6.940;2022-12-07T00:48:57;4.90;99.90
66088;DHT22;52872;52.994;6.940;2022-12-07T00:51:25;5.00;99.90
66088;DHT22;52872;52.994;6.940;2022-12-07T00:53:52;5.00;99.90
66088;DHT22;52872;52.994;6.940;2022-12-07T00:56:25;4.90;99.90
66088;DHT22;52872;52.994;6.940;2022-12-07T00:58:55;4.90;99.90
66088;DHT22;52872;52.994;6.940;2022-12-07T01:01:24;4.80;99.90
66088;DHT22;52872;52.994;6.940;2022-12-07T01:03:51;4.80;99.90
66088;DHT22;52872;52.994;6.940;2022-12-07T01:06:20;4.80;99.90
66088;DHT22;52872;52.994;6.940;2022-12-07T01:08:47;4.70;99.90
66088;DHT22;52872;52.994;6.940;2022-12-07T01:11:17;4.70;99.90
66088;DHT22;52872;52.994;6.940;2022-12-07T01:13:45;4.60;99.90
66088;DHT22;52872;52.994;6.940;2022-12-07T01:16:14;4.60;99.90
66088;DHT22;52872;52.994;6.940;2022-12-07T01:18:41;4.60;99.90
66088;DHT22;52872;52.994;6.940;2022-12-07T01:21:15;4.70;99.90
66088;DHT22;52872;52.994;6.940;2022-12-07T01:23:44;4.70;99.90
66088;DHT22;52872;52.994;6.940;2022-12-07T01:26:13;4.60;99.90
66088;DHT22;52872;52.994;6.940;2022-12-07T01:28:41;4.60;99.90
66088;DHT22;52872;52.994;6.940;2022-12-07T01:31:10;4.70;99.90
66088;DHT22;52872;52.994;6.940;2022-12-07T01:33:39;4.80;99.90
66088;DHT22;52872;52.994;6.940;2022-12-07T01:36:26;4.80;99.90
66088;DHT22;52872;52.994;6.940;2022-12-07T01:38:56;4.90;99.90
66088;DHT22;52872;52.994;6.940;2022-12-07T01:41:25;4.80;99.90
66088;DHT22;52872;52.994;6.940;2022-12-07T01:44:27;4.80;99.90
66088;DHT22;52872;52.994;6.940;2022-12-07T01:47:01;4.80;99.90
66088;DHT22;52872;52.994;6.940;2022-12-07T01:52:26;4.70;99.90
66088;DHT22;52872;52.994;6.940;2022-12-07T01:54:58;4.70;99.90
66088;DHT22;52872;52.994;6.940;2022-12-07T01:57:27;4.60;99.90
66088;DHT22;52872;52.994;6.940;2022-12-07T01:59:55;4.60;99.90
66088;DHT22;52872;52.994;6.940;2022-12-07T02:02:28;4.50;99.90
66088;DHT22;52872;52.994;6.940;2022-12-07T02:04:59;4.50;99.90
66088;DHT22;52872;52.994;6.940;2022-12-07T02:07:27;4.50;99.90
66088;DHT22;52872;52.994;6.940;2022-12-07T02:09:55;4.50;99.90
66088;DHT22;52872;52.994;6.940;2022-12-07T02:12:23;4.40;99.90
66088;DHT22;52872;52.994;6.940;2022-12-07T02:14:51;4.40;99.90
66088;DHT22;52872;52.994;6.940;2022-12-07T02:17:31;4.50;99.90
66088;DHT22;52872;52.994;6.940;2022-12-07T02:28:34;4.70;99.90
66088;DHT22;52872;52.994;6.940;2022-12-07T02:31:12;4.80;99.90
66088;DHT22;52872;52.994;6.940;2022-12-07T02:33:48;4.90;99.90
66088;DHT22;52872;52.994;6.940;2022-12-07T02:36:24;5.00;99.90
66088;DHT22;52872;52.994;6.940;2022-12-07T02:39:02;5.00;99.90
66088;DHT22;52872;52.994;6.940;2022-12-07T02:41:37;5.10;99.90
66088;DHT22;52872;52.994;6.940;2022-12-07T02:44:10;5.10;99.90
66088;DHT22;52872;52.994;6.940;2022-12-07T02:46:46;5.10;99.90
66088;DHT22;52872;52.994;6.940;2022-12-07T02:49:15;5.00;99.90
66088;DHT22;52872;52.994;6.940;2022-12-07T02:51:43;4.90;99.90
66088;DHT22;52872;52.994;6.940;2022-12-07T02:54:14;4.90;99.90
66088;DHT22;52872;52.994;6.940;2022-12-07T02:56:46;4.80;99.90
66088;DHT22;52872;52.994;6.940;2022-12-07T03:01:53;4.70;99.90
66088;DHT22;52872;52.994;6.940;2022-12-07T03:07:38;4.60;99.90
66088;DHT22;52872;52.994;6.940;2022-12-07T03:18:29;4.30;99.90
66088;DHT22;52872;52.994;6.940;2022-12-07T03:21:00;4.30;99.90
66088;DHT22;52872;52.994;6.940;2022-12-07T03:23:30;4.30;99.90
66088;DHT22;52872;52.994;6.940;2022-12-07T03:26:01;4.30;99.90
66088;DHT22;52872;52.994;6.940;2022-12-07T03:28:33;4.40;99.90
66088;DHT22;52872;52.994;6.940;2022-12-07T03:31:31;4.40;99.90
66088;DHT22;52872;52.994;6.940;2022-12-07T03:34:14;4.50;99.90
66088;DHT22;52872;52.994;6.940;2022-12-07T03:37:08;4.50;99.90
66088;DHT22;52872;52.994;6.940;2022-12-07T03:42:23;4.60;99.90
66088;DHT22;52872;52.994;6.940;2022-12-07T03:44:50;4.60;99.90
66088;DHT22;52872;52.994;6.940;2022-12-07T03:49:53;4.70;99.90
66088;DHT22;52872;52.994;6.940;2022-12-07T03:52:40;4.70;99.90
66088;DHT22;52872;52.994;6.940;2022-12-07T03:57:58;4.70;99.90
66088;DHT22;52872;52.994;6.940;2022-12-07T04:00:26;4.80;99.90
66088;DHT22;52872;52.994;6.940;2022-12-07T04:02:53;4.90;99.90
66088;DHT22;52872;52.994;6.940;2022-12-07T04:05:20;5.00;99.90
66088;DHT22;52872;52.994;6.940;2022-12-07T04:07:47;5.10;99.90
66088;DHT22;52872;52.994;6.940;2022-12-07T04:10:14;5.20;99.90
66088;DHT22;52872;52.994;6.940;2022-12-07T04:12:41;5.20;99.90
66088;DHT22;52872;52.994;6.940;2022-12-07T04:15:09;5.30;99.90
66088;DHT22;52872;52.994;6.940;2022-12-07T04:17:37;5.30;99.90
66088;DHT22;52872;52.994;6.940;2022-12-07T04:20:05;5.30;99.90
66088;DHT22;52872;52.994;6.940;2022-12-07T04:22:32;5.20;99.90
66088;DHT22;52872;52.994;6.940;2022-12-07T04:24:59;5.10;99.90
66088;DHT22;52872;52.994;6.940;2022-12-07T04:27:26;5.10;99.90
66088;DHT22;52872;52.994;6.940;2022-12-07T04:29:53;5.10;99.90
66088;DHT22;52872;52.994;6.940;2022-12-07T04:32:22;5.10;99.90
66088;DHT22;52872;52.994;6.940;2022-12-07T04:34:49;5.10;99.90
66088;DHT22;52872;52.994;6.940;2022-12-07T04:37:21;5.10;99.90
66088;DHT22;52872;52.994;6.940;2022-12-07T04:39:48;4.90;99.90
66088;DHT22;52872;52.994;6.940;2022-12-07T04:42:15;4.90;99.90
66088;DHT22;52872;52.994;6.940;2022-12-07T04:44:42;4.80;99.90
66088;DHT22;52872;52.994;6.940;2022-12-07T04:47:09;4.70;99.90
66088;DHT22;52872;52.994;6.940;2022-12-07T04:49:36;4.60;99.90
66088;DHT22;52872;52.994;6.940;2022-12-07T04:52:03;4.60;99.90
66088;DHT22;52872;52.994;6.940;2022-12-07T04:54:30;4.50;99.90
66088;DHT22;52872;52.994;6.940;2022-12-07T04:56:57;4.50;99.90
66088;DHT22;52872;52.994;6.940;2022-12-07T04:59:24;4.40;99.90
66088;DHT22;52872;52.994;6.940;2022-12-07T05:01:50;4.40;99.90
66088;DHT22;52872;52.994;6.940;2022-12-07T05:04:17;4.40;99.90
66088;DHT22;52872;52.994;6.940;2022-12-07T05:06:44;4.40;99.90
66088;DHT22;52872;52.994;6.940;2022-12-07T05:09:12;4.40;99.90
66088;DHT22;52872;52.994;6.940;2022-12-07T05:11:38;4.40;99.90
66088;DHT22;52872;52.994;6.940;2022-12-07T05:14:10;4.40;99.90
66088;DHT22;52872;52.994;6.940;2022-12-07T05:16:38;4.50;99.90
66088;DHT22;52872;52.994;6.940;2022-12-07T05:19:06;4.50;99.90
66088;DHT22;52872;52.994;6.940;2022-12-07T05:21:34;4.50;99.90
66088;DHT22;52872;52.994;6.940;2022-12-07T05:24:01;4.60;99.90
66088;DHT22;52872;52.994;6.940;2022-12-07T05:26:29;4.70;99.90
66088;DHT22;52872;52.994;6.940;2022-12-07T05:28:56;4.70;99.90
66088;DHT22;52872;52.994;6.940;2022-12-07T05:31:24;4.80;99.90
66088;DHT22;52872;52.994;6.940;2022-12-07T05:33:51;4.80;99.90
66088;DHT22;52872;52.994;6.940;2022-12-07T05:36:19;4.80;99.90
66088;DHT22;52872;52.994;6.940;2022-12-07T05:38:46;4.80;99.90
66088;DHT22;52872;52.994;6.940;2022-12-07T05:41:16;4.70;99.90
66088;DHT22;52872;52.994;6.940;2022-12-07T05:44:02;4.60;99.90
66088;DHT22;52872;52.994;6.940;2022-12-07T05:46:29;4.60;99.90
66088;DHT22;52872;52.994;6.940;2022-12-07T05:48:56;4.50;99.90
66088;DHT22;52872;52.994;6.940;2022-12-07T05:51:23;4.40;99.90
66088;DHT22;52872;52.994;6.940;2022-12-07T05:53:50;4.30;99.90
66088;DHT22;52872;52.994;6.940;2022-12-07T05:56:17;4.30;99.90
66088;DHT22;52872;52.994;6.940;2022-12-07T05:58:44;4.20;99.90
66088;DHT22;52872;52.994;6.940;2022-12-07T06:01:29;4.10;99.90
66088;DHT22;52872;52.994;6.940;2022-12-07T06:03:56;4.10;99.90
66088;DHT22;52872;52.994;6.940;2022-12-07T06:06:23;4.00;99.90
66088;DHT22;52872;52.994;6.940;2022-12-07T06:08:50;3.90;99.90
66088;DHT22;52872;52.994;6.940;2022-12-07T06:11:17;4.00;99.90
66088;DHT22;52872;52.994;6.940;2022-12-07T06:14:03;3.90;99.90
66088;DHT22;52872;52.994;6.940;2022-12-07T06:16:30;3.90;99.90
66088;DHT22;52872;52.994;6.940;2022-12-07T06:18:57;3.80;99.90
66088;DHT22;52872;52.994;6.940;2022-12-07T06:21:24;3.80;99.90
66088;DHT22;52872;52.994;6.940;2022-12-07T06:23:52;3.80;99.90
66088;DHT22;52872;52.994;6.940;2022-12-07T06:26:20;3.70;99.90
66088;DHT22;52872;52.994;6.940;2022-12-07T06:28:46;3.70;99.90
66088;DHT22;52872;52.994;6.940;2022-12-07T06:31:14;3.70;99.90
66088;DHT22;52872;52.994;6.940;2022-12-07T06:33:41;3.60;99.90
66088;DHT22;52872;52.994;6.940;2022-12-07T06:36:09;3.60;99.90
66088;DHT22;52872;52.994;6.940;2022-12-07T06:38:36;3.50;99.90
66088;DHT22;52872;52.994;6.940;2022-12-07T06:41:03;3.50;99.90
66088;DHT22;52872;52.994;6.940;2022-12-07T06:43:30;3.50;99.90
66088;DHT22;52872;52.994;6.940;2022-12-07T06:45:57;3.50;99.90
66088;DHT22;52872;52.994;6.940;2022-12-07T06:48:24;3.40;99.90
66088;DHT22;52872;52.994;6.940;2022-12-07T06:50:51;3.40;99.90
66088;DHT22;52872;52.994;6.940;2022-12-07T06:53:21;3.40;99.90
66088;DHT22;52872;52.994;6.940;2022-12-07T06:55:48;3.40;99.90
66088;DHT22;52872;52.994;6.940;2022-12-07T06:58:16;3.40;99.90
66088;DHT22;52872;52.994;6.940;2022-12-07T07:00:44;3.50;99.90
66088;DHT22;52872;52.994;6.940;2022-12-07T07:03:12;3.60;99.90
66088;DHT22;52872;52.994;6.940;2022-12-07T07:05:39;3.60;99.90
66088;DHT22;52872;52.994;6.940;2022-12-07T07:08:06;3.70;99.90
66088;DHT22;52872;52.994;6.940;2022-12-07T07:10:49;3.70;99.90
66088;DHT22;52872;52.994;6.940;2022-12-07T07:13:16;3.70;99.90
66088;DHT22;52872;52.994;6.940;2022-12-07T07:15:43;3.70;99.90
66088;DHT22;52872;52.994;6.940;2022-12-07T07:18:10;3.80;99.90
66088;DHT22;52872;52.994;6.940;2022-12-07T07:20:37;3.70;99.90
66088;DHT22;52872;52.994;6.940;2022-12-07T07:23:05;3.70;99.90
66088;DHT22;52872;52.994;6.940;2022-12-07T07:25:32;3.70;99.90
66088;DHT22;52872;52.994;6.940;2022-12-07T07:27:59;3.70;99.90
66088;DHT22;52872;52.994;6.940;2022-12-07T07:30:27;3.60;99.90
66088;DHT22;52872;52.994;6.940;2022-12-07T07:32:58;3.60;99.90
66088;DHT22;52872;52.994;6.940;2022-12-07T07:35:26;3.60;99.90
66088;DHT22;52872;52.994;6.940;2022-12-07T07:37:54;3.60;99.90
66088;DHT22;52872;52.994;6.940;2022-12-07T07:40:21;3.60;99.90
66088;DHT22;52872;52.994;6.940;2022-12-07T07:42:49;3.60;99.90
66088;DHT22;52872;52.994;6.940;2022-12-07T07:45:17;3.70;99.90
66088;DHT22;52872;52.994;6.940;2022-12-07T07:47:44;3.70;99.90
66088;DHT22;52872;52.994;6.940;2022-12-07T07:50:11;3.90;99.90
66088;DHT22;52872;52.994;6.940;2022-12-07T07:52:39;4.00;99.90
66088;DHT22;52872;52.994;6.940;2022-12-07T07:55:06;4.10;99.90
66088;DHT22;52872;52.994;6.940;2022-12-07T07:57:36;4.20;99.90
66088;DHT22;52872;52.994;6.940;2022-12-07T08:00:05;4.40;99.90
66088;DHT22;52872;52.994;6.940;2022-12-07T08:02:38;4.50;99.90
66088;DHT22;52872;52.994;6.940;2022-12-07T08:05:06;4.60;99.90
66088;DHT22;52872;52.994;6.940;2022-12-07T08:07:33;4.60;99.90
66088;DHT22;52872;52.994;6.940;2022-12-07T08:10:00;4.70;99.90
66088;DHT22;52872;52.994;6.940;2022-12-07T08:12:27;4.80;99.90
66088;DHT22;52872;52.994;6.940;2022-12-07T08:14:54;4.90;99.90
66088;DHT22;52872;52.994;6.940;2022-12-07T08:17:21;5.00;99.90
66088;DHT22;52872;52.994;6.940;2022-12-07T08:19:48;5.00;99.90
66088;DHT22;52872;52.994;6.940;2022-12-07T08:22:15;5.10;99.90
66088;DHT22;52872;52.994;6.940;2022-12-07T08:24:42;5.10;99.90
66088;DHT22;52872;52.994;6.940;2022-12-07T08:27:09;5.20;99.90
66088;DHT22;52872;52.994;6.940;2022-12-07T08:29:36;5.20;99.90
66088;DHT22;52872;52.994;6.940;2022-12-07T08:32:03;5.20;99.90
66088;DHT22;52872;52.994;6.940;2022-12-07T08:34:35;5.20;99.90
66088;DHT22;52872;52.994;6.940;2022-12-07T08:37:02;5.20;99.90
66088;DHT22;52872;52.994;6.940;2022-12-07T08:39:29;5.10;99.90
66088;DHT22;52872;52.994;6.940;2022-12-07T08:41:57;5.10;99.90
66088;DHT22;52872;52.994;6.940;2022-12-07T08:44:24;5.00;99.90
66088;DHT22;52872;52.994;6.940;2022-12-07T08:46:56;5.00;99.90
66088;DHT22;52872;52.994;6.940;2022-12-07T08:49:30;5.00;99.90
66088;DHT22;52872;52.994;6.940;2022-12-07T08:51:58;5.00;99.90
66088;DHT22;52872;52.994;6.940;2022-12-07T08:54:25;4.90;99.90
66088;DHT22;52872;52.994;6.940;2022-12-07T08:56:53;5.00;99.90
66088;DHT22;52872;52.994;6.940;2022-12-07T08:59:25;5.00;99.90
66088;DHT22;52872;52.994;6.940;2022-12-07T09:01:53;5.00;99.90
66088;DHT22;52872;52.994;6.940;2022-12-07T09:04:20;5.00;99.90
66088;DHT22;52872;52.994;6.940;2022-12-07T09:06:47;5.00;99.90
66088;DHT22;52872;52.994;6.940;2022-12-07T09:09:14;5.10;99.90
66088;DHT22;52872;52.994;6.940;2022-12-07T09:11:42;5.10;99.90
66088;DHT22;52872;52.994;6.940;2022-12-07T09:14:09;5.10;99.90
66088;DHT22;52872;52.994;6.940;2022-12-07T09:16:36;5.20;99.90
66088;DHT22;52872;52.994;6.940;2022-12-07T09:19:02;5.20;99.90
66088;DHT22;52872;52.994;6.940;2022-12-07T09:21:30;5.30;99.90
66088;DHT22;52872;52.994;6.940;2022-12-07T09:23:57;5.40;99.90
66088;DHT22;52872;52.994;6.940;2022-12-07T09:26:24;5.40;99.90
66088;DHT22;52872;52.994;6.940;2022-12-07T09:28:50;5.40;99.90
66088;DHT22;52872;52.994;6.940;2022-12-07T09:31:17;5.40;99.90
66088;DHT22;52872;52.994;6.940;2022-12-07T09:34:00;5.50;99.90
66088;DHT22;52872;52.994;6.940;2022-12-07T09:36:28;5.60;99.90
66088;DHT22;52872;52.994;6.940;2022-12-07T09:38:55;5.70;99.90
66088;DHT22;52872;52.994;6.940;2022-12-07T09:41:24;5.80;99.90
66088;DHT22;52872;52.994;6.940;2022-12-07T09:43:52;6.00;99.90
66088;DHT22;52872;52.994;6.940;2022-12-07T09:46:21;6.10;99.90
66088;DHT22;52872;52.994;6.940;2022-12-07T09:48:49;6.30;99.90
66088;DHT22;52872;52.994;6.940;2022-12-07T09:51:22;6.30;99.90
66088;DHT22;52872;52.994;6.940;2022-12-07T09:53:52;6.40;99.90
66088;DHT22;52872;52.994;6.940;2022-12-07T09:56:21;6.50;99.90
66088;DHT22;52872;52.994;6.940;2022-12-07T09:58:48;6.60;99.90
66088;DHT22;52872;52.994;6.940;2022-12-07T10:01:21;6.60;99.90
66088;DHT22;52872;52.994;6.940;2022-12-07T10:03:58;6.70;99.90
66088;DHT22;52872;52.994;6.940;2022-12-07T10:06:27;6.70;99.90
66088;DHT22;52872;52.994;6.940;2022-12-07T10:08:54;6.80;99.90
66088;DHT22;52872;52.994;6.940;2022-12-07T10:11:21;7.00;99.90
66088;DHT22;52872;52.994;6.940;2022-12-07T10:13:51;7.10;99.90
66088;DHT22;52872;52.994;6.940;2022-12-07T10:16:47;7.30;99.90
66088;DHT22;52872;52.994;6.940;2022-12-07T10:22:15;7.60;99.90
66088;DHT22;52872;52.994;6.940;2022-12-07T10:24:43;7.60;99.90
66088;DHT22;52872;52.994;6.940;2022-12-07T10:27:30;7.50;99.90
66088;DHT22;52872;52.994;6.940;2022-12-07T10:29:56;7.60;99.90
66088;DHT22;52872;52.994;6.940;2022-12-07T10:32:31;7.50;99.90
66088;DHT22;52872;52.994;6.940;2022-12-07T10:35:38;7.40;99.90
66088;DHT22;52872;52.994;6.940;2022-12-07T10:38:15;7.50;99.90
66088;DHT22;52872;52.994;6.940;2022-12-07T10:40:42;7.50;99.90
66088;DHT22;52872;52.994;6.940;2022-12-07T10:51:51;7.60;99.90
66088;DHT22;52872;52.994;6.940;2022-12-07T10:57:24;7.70;99.90
66088;DHT22;52872;52.994;6.940;2022-12-07T11:00:10;7.70;99.90
66088;DHT22;52872;52.994;6.940;2022-12-07T11:03:08;7.70;99.90
66088;DHT22;52872;52.994;6.940;2022-12-07T11:24:56;7.80;99.90
66088;DHT22;52872;52.994;6.940;2022-12-07T11:27:41;7.70;99.90
66088;DHT22;52872;52.994;6.940;2022-12-07T11:38:45;7.70;99.90
66088;DHT22;52872;52.994;6.940;2022-12-07T11:41:37;7.70;99.90
66088;DHT22;52872;52.994;6.940;2022-12-07T11:46:58;7.80;99.90
66088;DHT22;52872;52.994;6.940;2022-12-07T11:49:45;7.80;99.90
66088;DHT22;52872;52.994;6.940;2022-12-07T11:52:42;7.80;99.90
66088;DHT22;52872;52.994;6.940;2022-12-07T11:55:24;7.80;99.90
66088;DHT22;52872;52.994;6.940;2022-12-07T11:58:01;7.70;99.90
66088;DHT22;52872;52.994;6.940;2022-12-07T12:00:30;7.70;99.90
66088;DHT22;52872;52.994;6.940;2022-12-07T12:03:14;7.70;99.90
66088;DHT22;52872;52.994;6.940;2022-12-07T12:05:41;7.70;99.90
66088;DHT22;52872;52.994;6.940;2022-12-07T12:08:18;7.70;99.90
66088;DHT22;52872;52.994;6.940;2022-12-07T12:14:00;7.70;99.90
66088;DHT22;52872;52.994;6.940;2022-12-07T12:19:42;7.80;99.90
66088;DHT22;52872;52.994;6.940;2022-12-07T12:22:15;7.90;99.90
66088;DHT22;52872;52.994;6.940;2022-12-07T12:24:46;7.90;99.90
66088;DHT22;52872;52.994;6.940;2022-12-07T12:29:56;8.00;99.90
66088;DHT22;52872;52.994;6.940;2022-12-07T12:32:39;8.00;99.90
66088;DHT22;52872;52.994;6.940;2022-12-07T12:37:54;8.00;99.90
66088;DHT22;52872;52.994;6.940;2022-12-07T12:42:50;7.90;99.90
66088;DHT22;52872;52.994;6.940;2022-12-07T12:47:58;7.80;99.90
66088;DHT22;52872;52.994;6.940;2022-12-07T12:55:49;7.50;99.90
66088;DHT22;52872;52.994;6.940;2022-12-07T13:00:47;7.30;99.90
66088;DHT22;52872;52.994;6.940;2022-12-07T13:03:26;7.20;99.90
66088;DHT22;52872;52.994;6.940;2022-12-07T13:08:52;7.10;99.90
66088;DHT22;52872;52.994;6.940;2022-12-07T13:11:41;7.00;99.90
66088;DHT22;52872;52.994;6.940;2022-12-07T13:14:43;7.00;99.90
66088;DHT22;52872;52.994;6.940;2022-12-07T13:20:01;6.80;99.90
66088;DHT22;52872;52.994;6.940;2022-12-07T13:25:12;6.70;99.90
66088;DHT22;52872;52.994;6.940;2022-12-07T13:27:41;6.70;99.90
66088;DHT22;52872;52.994;6.940;2022-12-07T13:30:17;6.70;99.90
66088;DHT22;52872;52.994;6.940;2022-12-07T13:32:51;6.70;99.90
66088;DHT22;52872;52.994;6.940;2022-12-07T13:35:36;6.60;99.90
66088;DHT22;52872;52.994;6.940;2022-12-07T13:38:38;6.60;99.90
66088;DHT22;52872;52.994;6.940;2022-12-07T13:44:13;6.70;99.90
66088;DHT22;52872;52.994;6.940;2022-12-07T13:49:32;6.90;99.90
66088;DHT22;52872;52.994;6.940;2022-12-07T13:52:19;6.90;99.90
66088;DHT22;52872;52.994;6.940;2022-12-07T13:57:17;7.00;99.90
66088;DHT22;52872;52.994;6.940;2022-12-07T13:59:45;7.00;99.90
66088;DHT22;52872;52.994;6.940;2022-12-07T14:04:51;6.90;99.90
66088;DHT22;52872;52.994;6.940;2022-12-07T14:07:27;6.80;99.90
66088;DHT22;52872;52.994;6.940;2022-12-07T14:10:22;6.70;99.90
66088;DHT22;52872;52.994;6.940;2022-12-07T14:12:45;6.70;99.90
66088;DHT22;52872;52.994;6.940;2022-12-07T14:15:21;6.60;99.90
66088;DHT22;52872;52.994;6.940;2022-12-07T14:17:51;6.60;99.90
66088;DHT22;52872;52.994;6.940;2022-12-07T14:20:35;6.60;99.90
66088;DHT22;52872;52.994;6.940;2022-12-07T14:23:04;6.60;99.90
66088;DHT22;52872;52.994;6.940;2022-12-07T14:25:46;6.60;99.90
66088;DHT22;52872;52.994;6.940;2022-12-07T14:28:33;6.70;99.90
66088;DHT22;52872;52.994;6.940;2022-12-07T14:31:01;6.60;99.90
66088;DHT22;52872;52.994;6.940;2022-12-07T14:33:29;6.50;99.90
66088;DHT22;52872;52.994;6.940;2022-12-07T14:35:56;6.50;99.90
66088;DHT22;52872;52.994;6.940;2022-12-07T14:38:25;6.40;99.90
66088;DHT22;52872;52.994;6.940;2022-12-07T14:40:53;6.40;99.90
66088;DHT22;52872;52.994;6.940;2022-12-07T14:43:21;6.40;99.90
66088;DHT22;52872;52.994;6.940;2022-12-07T14:45:48;6.40;99.90
66088;DHT22;52872;52.994;6.940;2022-12-07T14:48:15;6.30;99.90
66088;DHT22;52872;52.994;6.940;2022-12-07T14:51:04;6.30;99.90
66088;DHT22;52872;52.994;6.940;2022-12-07T14:53:52;6.30;99.90
66088;DHT22;52872;52.994;6.940;2022-12-07T14:56:22;6.20;99.90
66088;DHT22;52872;52.994;6.940;2022-12-07T14:58:49;6.20;99.90
66088;DHT22;52872;52.994;6.940;2022-12-07T15:01:16;6.10;99.90
66088;DHT22;52872;52.994;6.940;2022-12-07T15:03:43;6.00;99.90
66088;DHT22;52872;52.994;6.940;2022-12-07T15:06:14;6.00;99.90
66088;DHT22;52872;52.994;6.940;2022-12-07T15:08:42;5.90;99.90
66088;DHT22;52872;52.994;6.940;2022-12-07T15:11:15;5.90;99.90
66088;DHT22;52872;52.994;6.940;2022-12-07T15:13:43;5.90;99.90
66088;DHT22;52872;52.994;6.940;2022-12-07T15:16:28;5.80;99.90
66088;DHT22;52872;52.994;6.940;2022-12-07T15:19:14;5.80;99.90
66088;DHT22;52872;52.994;6.940;2022-12-07T15:21:57;5.80;99.90
66088;DHT22;52872;52.994;6.940;2022-12-07T15:24:26;5.70;99.90
66088;DHT22;52872;52.994;6.940;2022-12-07T15:26:53;5.80;99.90
66088;DHT22;52872;52.994;6.940;2022-12-07T15:29:21;5.80;99.90
66088;DHT22;52872;52.994;6.940;2022-12-07T15:31:51;5.80;99.90
66088;DHT22;52872;52.994;6.940;2022-12-07T15:34:26;5.80;99.90
66088;DHT22;52872;52.994;6.940;2022-12-07T15:37:01;5.80;99.90
66088;DHT22;52872;52.994;6.940;2022-12-07T15:39:28;5.80;99.90
66088;DHT22;52872;52.994;6.940;2022-12-07T15:41:55;5.80;99.90
66088;DHT22;52872;52.994;6.940;2022-12-07T15:44:22;5.80;99.90
66088;DHT22;52872;52.994;6.940;2022-12-07T15:47:08;5.80;99.90
66088;DHT22;52872;52.994;6.940;2022-12-07T15:49:35;5.80;99.90
66088;DHT22;52872;52.994;6.940;2022-12-07T15:52:02;5.70;99.90
66088;DHT22;52872;52.994;6.940;2022-12-07T15:54:29;5.70;99.90
66088;DHT22;52872;52.994;6.940;2022-12-07T15:56:56;5.70;99.90
66088;DHT22;52872;52.994;6.940;2022-12-07T15:59:25;5.60;99.90
66088;DHT22;52872;52.994;6.940;2022-12-07T16:01:52;5.60;99.90
66088;DHT22;52872;52.994;6.940;2022-12-07T16:04:19;5.60;99.90
66088;DHT22;52872;52.994;6.940;2022-12-07T16:06:46;5.50;99.90
66088;DHT22;52872;52.994;6.940;2022-12-07T16:09:14;5.40;99.90
66088;DHT22;52872;52.994;6.940;2022-12-07T16:11:41;5.40;99.90
66088;DHT22;52872;52.994;6.940;2022-12-07T16:14:08;5.40;99.90
66088;DHT22;52872;52.994;6.940;2022-12-07T16:16:35;5.30;99.90
66088;DHT22;52872;52.994;6.940;2022-12-07T16:19:02;5.30;99.90
66088;DHT22;52872;52.994;6.940;2022-12-07T16:21:29;5.30;99.90
66088;DHT22;52872;52.994;6.940;2022-12-07T16:23:58;5.30;99.90
66088;DHT22;52872;52.994;6.940;2022-12-07T16:26:25;5.30;99.90
66088;DHT22;52872;52.994;6.940;2022-12-07T16:28:53;5.30;99.90
66088;DHT22;52872;52.994;6.940;2022-12-07T16:31:23;5.30;99.90
66088;DHT22;52872;52.994;6.940;2022-12-07T16:33:54;5.20;99.90
66088;DHT22;52872;52.994;6.940;2022-12-07T16:36:21;5.20;99.90
66088;DHT22;52872;52.994;6.940;2022-12-07T16:39:09;5.20;99.90
66088;DHT22;52872;52.994;6.940;2022-12-07T16:41:36;5.20;99.90
66088;DHT22;52872;52.994;6.940;2022-12-07T16:44:07;5.20;99.90
66088;DHT22;52872;52.994;6.940;2022-12-07T16:46:35;5.20;99.90
66088;DHT22;52872;52.994;6.940;2022-12-07T16:49:03;5.20;99.90
66088;DHT22;52872;52.994;6.940;2022-12-07T16:51:31;5.20;99.90
66088;DHT22;52872;52.994;6.940;2022-12-07T16:53:58;5.20;99.90
66088;DHT22;52872;52.994;6.940;2022-12-07T16:56:25;5.30;99.90
66088;DHT22;52872;52.994;6.940;2022-12-07T16:58:53;5.30;99.90
66088;DHT22;52872;52.994;6.940;2022-12-07T17:01:22;5.30;99.90
66088;DHT22;52872;52.994;6.940;2022-12-07T17:03:50;5.30;99.90
66088;DHT22;52872;52.994;6.940;2022-12-07T17:06:20;5.40;99.90
66088;DHT22;52872;52.994;6.940;2022-12-07T17:08:47;5.40;99.90
66088;DHT22;52872;52.994;6.940;2022-12-07T17:11:26;5.40;99.90
66088;DHT22;52872;52.994;6.940;2022-12-07T17:13:53;5.40;99.90
66088;DHT22;52872;52.994;6.940;2022-12-07T17:16:39;5.40;99.90
66088;DHT22;52872;52.994;6.940;2022-12-07T17:19:08;5.40;99.90
66088;DHT22;52872;52.994;6.940;2022-12-07T17:21:36;5.40;99.90
66088;DHT22;52872;52.994;6.940;2022-12-07T17:24:05;5.40;99.90
66088;DHT22;52872;52.994;6.940;2022-12-07T17:26:32;5.40;99.90
66088;DHT22;52872;52.994;6.940;2022-12-07T17:29:03;5.40;99.90
66088;DHT22;52872;52.994;6.940;2022-12-07T17:31:30;5.40;99.90
66088;DHT22;52872;52.994;6.940;2022-12-07T17:33:59;5.40;99.90
66088;DHT22;52872;52.994;6.940;2022-12-07T17:36:28;5.40;99.90
66088;DHT22;52872;52.994;6.940;2022-12-07T17:38:56;5.40;99.90
66088;DHT22;52872;52.994;6.940;2022-12-07T17:41:26;5.50;99.90
66088;DHT22;52872;52.994;6.940;2022-12-07T17:44:14;5.50;99.90
66088;DHT22;52872;52.994;6.940;2022-12-07T17:46:42;5.50;99.90
66088;DHT22;52872;52.994;6.940;2022-12-07T17:49:09;5.60;99.90
66088;DHT22;52872;52.994;6.940;2022-12-07T17:51:36;5.60;99.90
66088;DHT22;52872;52.994;6.940;2022-12-07T17:54:21;5.60;99.90
66088;DHT22;52872;52.994;6.940;2022-12-07T17:56:49;5.60;99.90
66088;DHT22;52872;52.994;6.940;2022-12-07T17:59:16;5.60;99.90
66088;DHT22;52872;52.994;6.940;2022-12-07T18:01:44;5.70;99.90
66088;DHT22;52872;52.994;6.940;2022-12-07T18:04:11;5.70;99.90
66088;DHT22;52872;52.994;6.940;2022-12-07T18:06:39;5.70;99.90
66088;DHT22;52872;52.994;6.940;2022-12-07T18:09:06;5.60;99.90
66088;DHT22;52872;52.994;6.940;2022-12-07T18:11:34;5.60;99.90